sensor_id;sensor_type;location;lat;lon;timestamp;pressure;altitude;pressure_sealevel;temperature;humidity
79690;BME280;69156;55.932;-3.238;2023-09-08T00:01:42;101132.62;;;17.72;76.27
79690;BME280;69156;55.932;-3.238;2023-09-08T00:04:08;101136.20;;;17.84;76.50
79690;BME280;69156;55.932;-3.238;2023-09-08T00:06:34;101132.94;;;17.67;76.51
79690;BME280;69156;55.932;-3.238;2023-09-08T00:09:04;101129.47;;;17.82;76.49
79690;BME280;69156;55.932;-3.238;2023-09-08T00:11:29;101118.43;;;17.67;76.39
79690;BME280;69156;55.932;-3.238;2023-09-08T00:13:55;101111.87;;;17.67;76.42
79690;BME280;69156;55.932;-3.238;2023-09-08T00:16:21;101117.06;;;17.85;76.08
79690;BME280;69156;55.932;-3.238;2023-09-08T00:18:47;101125.21;;;17.97;75.57
79690;BME280;69156;55.932;-3.238;2023-09-08T00:21:12;101127.40;;;18.03;75.03
79690;BME280;69156;55.932;-3.238;2023-09-08T00:23:38;101127.69;;;18.01;74.82
79690;BME280;69156;55.932;-3.238;2023-09-08T00:26:04;101120.93;;;17.96;74.90
79690;BME280;69156;55.932;-3.238;2023-09-08T00:28:29;101121.81;;;17.82;75.11
79690;BME280;69156;55.932;-3.238;2023-09-08T00:30:54;101130.20;;;17.85;75.00
79690;BME280;69156;55.932;-3.238;2023-09-08T00:33:20;101128.12;;;17.74;75.14
79690;BME280;69156;55.932;-3.238;2023-09-08T00:35:48;101119.86;;;17.67;75.51
79690;BME280;69156;55.932;-3.238;2023-09-08T00:38:11;101116.81;;;17.49;76.21
79690;BME280;69156;55.932;-3.238;2023-09-08T00:40:37;101119.23;;;17.34;76.81
79690;BME280;69156;55.932;-3.238;2023-09-08T00:43:02;101119.45;;;17.30;77.30
79690;BME280;69156;55.932;-3.238;2023-09-08T00:45:30;101121.60;;;17.29;77.49
79690;BME280;69156;55.932;-3.238;2023-09-08T00:47:53;101116.40;;;17.29;77.80
79690;BME280;69156;55.932;-3.238;2023-09-08T00:50:19;101112.88;;;17.19;77.98
79690;BME280;69156;55.932;-3.238;2023-09-08T00:52:44;101114.87;;;17.12;78.32
79690;BME280;69156;55.932;-3.238;2023-09-08T00:55:11;101117.21;;;17.30;78.42
79690;BME280;69156;55.932;-3.238;2023-09-08T00:57:37;101114.61;;;17.20;78.59
79690;BME280;69156;55.932;-3.238;2023-09-08T01:00:03;101107.22;;;17.21;78.69
79690;BME280;69156;55.932;-3.238;2023-09-08T01:02:27;101096.91;;;17.20;78.51
79690;BME280;69156;55.932;-3.238;2023-09-08T01:04:53;101093.65;;;17.12;78.93
79690;BME280;69156;55.932;-3.238;2023-09-08T01:07:19;101093.89;;;17.00;79.44
79690;BME280;69156;55.932;-3.238;2023-09-08T01:09:45;101098.06;;;16.95;79.77
79690;BME280;69156;55.932;-3.238;2023-09-08T01:12:09;101104.31;;;17.05;79.72
79690;BME280;69156;55.932;-3.238;2023-09-08T01:14:35;101105.98;;;16.95;79.90
79690;BME280;69156;55.932;-3.238;2023-09-08T01:17:00;101106.66;;;17.04;79.84
79690;BME280;69156;55.932;-3.238;2023-09-08T01:19:26;101102.55;;;17.15;79.62
79690;BME280;69156;55.932;-3.238;2023-09-08T01:22:21;101098.86;;;17.36;79.08
79690;BME280;69156;55.932;-3.238;2023-09-08T01:24:27;101097.76;;;17.35;78.76
79690;BME280;69156;55.932;-3.238;2023-09-08T01:26:42;101098.35;;;17.12;79.12
79690;BME280;69156;55.932;-3.238;2023-09-08T01:29:09;101099.31;;;17.33;79.04
79690;BME280;69156;55.932;-3.238;2023-09-08T01:31:32;101103.22;;;17.11;79.21
79690;BME280;69156;55.932;-3.238;2023-09-08T01:33:58;101100.76;;;17.12;79.23
79690;BME280;69156;55.932;-3.238;2023-09-08T01:36:23;101100.37;;;17.25;79.02
79690;BME280;69156;55.932;-3.238;2023-09-08T01:38:48;101092.63;;;17.05;79.30
79690;BME280;69156;55.932;-3.238;2023-09-08T01:41:14;101092.72;;;17.38;78.92
79690;BME280;69156;55.932;-3.238;2023-09-08T01:43:39;101095.69;;;17.33;78.54
79690;BME280;69156;55.932;-3.238;2023-09-08T01:46:05;101093.71;;;17.24;78.43
79690;BME280;69156;55.932;-3.238;2023-09-08T01:48:30;101094.95;;;17.35;78.21
79690;BME280;69156;55.932;-3.238;2023-09-08T01:50:56;101095.70;;;17.37;77.98
79690;BME280;69156;55.932;-3.238;2023-09-08T01:53:22;101096.99;;;17.38;77.87
79690;BME280;69156;55.932;-3.238;2023-09-08T01:55:47;101098.14;;;17.17;78.14
79690;BME280;69156;55.932;-3.238;2023-09-08T01:58:12;101095.19;;;17.05;78.69
79690;BME280;69156;55.932;-3.238;2023-09-08T02:00:38;101098.69;;;17.19;78.95
79690;BME280;69156;55.932;-3.238;2023-09-08T02:03:04;101100.80;;;17.07;79.05
79690;BME280;69156;55.932;-3.238;2023-09-08T02:05:28;101101.83;;;17.02;79.24
79690;BME280;69156;55.932;-3.238;2023-09-08T02:07:55;101102.76;;;16.77;79.71
79690;BME280;69156;55.932;-3.238;2023-09-08T02:10:21;101095.93;;;16.99;79.87
79690;BME280;69156;55.932;-3.238;2023-09-08T02:12:46;101094.47;;;16.96;79.70
79690;BME280;69156;55.932;-3.238;2023-09-08T02:15:11;101098.13;;;16.98;79.38
79690;BME280;69156;55.932;-3.238;2023-09-08T02:17:37;101100.27;;;17.14;79.31
79690;BME280;69156;55.932;-3.238;2023-09-08T02:20:02;101100.35;;;16.96;79.26
79690;BME280;69156;55.932;-3.238;2023-09-08T02:22:27;101097.93;;;16.86;79.32
79690;BME280;69156;55.932;-3.238;2023-09-08T02:24:53;101102.38;;;16.80;79.60
79690;BME280;69156;55.932;-3.238;2023-09-08T02:27:18;101108.53;;;16.78;79.89
79690;BME280;69156;55.932;-3.238;2023-09-08T02:29:44;101105.18;;;16.82;79.86
79690;BME280;69156;55.932;-3.238;2023-09-08T02:32:09;101100.92;;;16.74;79.80
79690;BME280;69156;55.932;-3.238;2023-09-08T02:34:35;101097.07;;;16.86;79.64
79690;BME280;69156;55.932;-3.238;2023-09-08T02:37:00;101094.03;;;16.75;79.74
79690;BME280;69156;55.932;-3.238;2023-09-08T02:39:26;101095.93;;;16.94;79.79
79690;BME280;69156;55.932;-3.238;2023-09-08T02:41:52;101095.02;;;16.93;79.59
79690;BME280;69156;55.932;-3.238;2023-09-08T02:44:17;101089.93;;;17.03;79.65
79690;BME280;69156;55.932;-3.238;2023-09-08T02:46:42;101088.93;;;16.98;79.66
79690;BME280;69156;55.932;-3.238;2023-09-08T02:49:07;101086.75;;;17.10;79.31
79690;BME280;69156;55.932;-3.238;2023-09-08T02:51:33;101086.74;;;17.07;78.85
79690;BME280;69156;55.932;-3.238;2023-09-08T02:53:59;101086.50;;;17.07;78.42
79690;BME280;69156;55.932;-3.238;2023-09-08T02:56:25;101081.87;;;17.16;78.25
79690;BME280;69156;55.932;-3.238;2023-09-08T02:58:50;101078.15;;;17.09;78.16
79690;BME280;69156;55.932;-3.238;2023-09-08T03:01:17;101072.72;;;17.15;78.40
79690;BME280;69156;55.932;-3.238;2023-09-08T03:03:41;101067.21;;;17.04;78.52
79690;BME280;69156;55.932;-3.238;2023-09-08T03:06:06;101065.56;;;16.79;78.92
79690;BME280;69156;55.932;-3.238;2023-09-08T03:08:31;101065.24;;;16.94;79.27
79690;BME280;69156;55.932;-3.238;2023-09-08T03:10:57;101065.04;;;16.89;79.60
79690;BME280;69156;55.932;-3.238;2023-09-08T03:13:23;101064.76;;;16.91;79.90
79690;BME280;69156;55.932;-3.238;2023-09-08T03:15:48;101065.70;;;16.85;80.07
79690;BME280;69156;55.932;-3.238;2023-09-08T03:18:13;101070.97;;;16.83;80.32
79690;BME280;69156;55.932;-3.238;2023-09-08T03:20:38;101073.20;;;16.85;80.38
79690;BME280;69156;55.932;-3.238;2023-09-08T03:23:04;101078.17;;;16.95;80.25
79690;BME280;69156;55.932;-3.238;2023-09-08T03:25:30;101078.82;;;16.82;80.30
79690;BME280;69156;55.932;-3.238;2023-09-08T03:27:55;101075.93;;;16.92;80.41
79690;BME280;69156;55.932;-3.238;2023-09-08T03:30:20;101071.79;;;16.83;80.41
79690;BME280;69156;55.932;-3.238;2023-09-08T03:32:46;101069.68;;;16.92;80.36
79690;BME280;69156;55.932;-3.238;2023-09-08T03:35:11;101069.75;;;16.81;80.54
79690;BME280;69156;55.932;-3.238;2023-09-08T03:37:37;101070.82;;;16.70;80.84
79690;BME280;69156;55.932;-3.238;2023-09-08T03:40:03;101068.26;;;16.72;80.87
79690;BME280;69156;55.932;-3.238;2023-09-08T03:42:28;101066.14;;;16.82;80.84
79690;BME280;69156;55.932;-3.238;2023-09-08T03:44:53;101068.98;;;16.84;80.71
79690;BME280;69156;55.932;-3.238;2023-09-08T03:47:19;101070.10;;;16.79;80.63
79690;BME280;69156;55.932;-3.238;2023-09-08T03:49:45;101070.92;;;16.86;80.45
79690;BME280;69156;55.932;-3.238;2023-09-08T03:52:10;101070.18;;;16.82;80.19
79690;BME280;69156;55.932;-3.238;2023-09-08T03:54:36;101072.84;;;16.70;80.21
79690;BME280;69156;55.932;-3.238;2023-09-08T03:57:01;101070.12;;;16.67;80.37
79690;BME280;69156;55.932;-3.238;2023-09-08T03:59:27;101067.95;;;16.49;80.38
79690;BME280;69156;55.932;-3.238;2023-09-08T04:01:53;101064.40;;;16.64;80.32
79690;BME280;69156;55.932;-3.238;2023-09-08T04:04:18;101060.72;;;16.63;80.40
79690;BME280;69156;55.932;-3.238;2023-09-08T04:06:44;101057.72;;;16.54;80.66
79690;BME280;69156;55.932;-3.238;2023-09-08T04:09:09;101057.62;;;16.59;80.68
79690;BME280;69156;55.932;-3.238;2023-09-08T04:11:34;101061.99;;;16.59;80.53
79690;BME280;69156;55.932;-3.238;2023-09-08T04:14:00;101060.49;;;16.51;80.83
79690;BME280;69156;55.932;-3.238;2023-09-08T04:16:26;101059.13;;;16.58;81.07
79690;BME280;69156;55.932;-3.238;2023-09-08T04:18:50;101054.85;;;16.51;81.19
79690;BME280;69156;55.932;-3.238;2023-09-08T04:21:16;101051.46;;;16.48;81.37
79690;BME280;69156;55.932;-3.238;2023-09-08T04:23:42;101050.29;;;16.70;81.38
79690;BME280;69156;55.932;-3.238;2023-09-08T04:26:08;101060.66;;;16.67;81.16
79690;BME280;69156;55.932;-3.238;2023-09-08T04:28:33;101056.29;;;16.73;80.87
79690;BME280;69156;55.932;-3.238;2023-09-08T04:30:59;101050.22;;;16.78;80.60
79690;BME280;69156;55.932;-3.238;2023-09-08T04:33:25;101053.98;;;16.90;80.15
79690;BME280;69156;55.932;-3.238;2023-09-08T04:35:50;101056.07;;;16.76;80.19
79690;BME280;69156;55.932;-3.238;2023-09-08T04:38:16;101053.31;;;16.73;80.05
79690;BME280;69156;55.932;-3.238;2023-09-08T04:40:41;101052.75;;;16.91;79.92
79690;BME280;69156;55.932;-3.238;2023-09-08T04:43:06;101052.75;;;16.71;79.85
79690;BME280;69156;55.932;-3.238;2023-09-08T04:45:32;101054.10;;;16.82;79.67
79690;BME280;69156;55.932;-3.238;2023-09-08T04:47:57;101056.12;;;16.64;79.54
79690;BME280;69156;55.932;-3.238;2023-09-08T04:50:23;101058.97;;;16.75;79.43
79690;BME280;69156;55.932;-3.238;2023-09-08T04:52:48;101068.90;;;16.63;79.30
79690;BME280;69156;55.932;-3.238;2023-09-08T04:55:14;101073.41;;;16.64;79.41
79690;BME280;69156;55.932;-3.238;2023-09-08T04:57:39;101076.55;;;16.67;79.39
79690;BME280;69156;55.932;-3.238;2023-09-08T05:00:06;101076.39;;;16.62;79.19
79690;BME280;69156;55.932;-3.238;2023-09-08T05:02:32;101074.23;;;16.67;79.30
79690;BME280;69156;55.932;-3.238;2023-09-08T05:04:57;101065.16;;;16.81;78.89
79690;BME280;69156;55.932;-3.238;2023-09-08T05:07:22;101059.51;;;16.96;78.19
79690;BME280;69156;55.932;-3.238;2023-09-08T05:09:49;101058.51;;;16.85;77.83
79690;BME280;69156;55.932;-3.238;2023-09-08T05:12:14;101065.39;;;16.73;78.06
79690;BME280;69156;55.932;-3.238;2023-09-08T05:14:40;101070.45;;;16.75;78.46
79690;BME280;69156;55.932;-3.238;2023-09-08T05:17:05;101073.00;;;16.70;78.69
79690;BME280;69156;55.932;-3.238;2023-09-08T05:19:31;101076.77;;;16.62;78.90
79690;BME280;69156;55.932;-3.238;2023-09-08T05:21:56;101080.35;;;16.51;79.16
79690;BME280;69156;55.932;-3.238;2023-09-08T05:24:21;101083.46;;;16.56;79.20
79690;BME280;69156;55.932;-3.238;2023-09-08T05:26:47;101084.06;;;16.50;79.33
79690;BME280;69156;55.932;-3.238;2023-09-08T05:29:12;101081.74;;;16.52;79.29
79690;BME280;69156;55.932;-3.238;2023-09-08T05:31:38;101078.30;;;16.52;79.36
79690;BME280;69156;55.932;-3.238;2023-09-08T05:34:04;101079.11;;;16.51;79.44
79690;BME280;69156;55.932;-3.238;2023-09-08T05:36:30;101082.28;;;16.57;79.16
79690;BME280;69156;55.932;-3.238;2023-09-08T05:38:56;101080.91;;;16.62;79.03
79690;BME280;69156;55.932;-3.238;2023-09-08T05:41:22;101077.85;;;16.59;78.86
79690;BME280;69156;55.932;-3.238;2023-09-08T05:43:48;101075.37;;;16.41;79.09
79690;BME280;69156;55.932;-3.238;2023-09-08T05:46:14;101072.85;;;16.33;79.52
79690;BME280;69156;55.932;-3.238;2023-09-08T05:48:39;101076.54;;;16.42;79.84
79690;BME280;69156;55.932;-3.238;2023-09-08T05:51:05;101085.97;;;16.55;79.67
79690;BME280;69156;55.932;-3.238;2023-09-08T05:53:30;101092.65;;;16.49;79.69
79690;BME280;69156;55.932;-3.238;2023-09-08T05:55:56;101097.15;;;16.43;79.41
79690;BME280;69156;55.932;-3.238;2023-09-08T05:58:21;101097.58;;;16.35;79.42
79690;BME280;69156;55.932;-3.238;2023-09-08T06:00:47;101102.97;;;16.32;79.45
79690;BME280;69156;55.932;-3.238;2023-09-08T06:03:13;101109.70;;;16.37;78.97
79690;BME280;69156;55.932;-3.238;2023-09-08T06:05:39;101106.76;;;16.49;78.79
79690;BME280;69156;55.932;-3.238;2023-09-08T06:08:05;101102.44;;;16.26;78.74
79690;BME280;69156;55.932;-3.238;2023-09-08T06:10:31;101103.46;;;16.21;78.90
79690;BME280;69156;55.932;-3.238;2023-09-08T06:12:56;101105.71;;;15.96;79.21
79690;BME280;69156;55.932;-3.238;2023-09-08T06:15:22;101104.28;;;16.11;79.35
79690;BME280;69156;55.932;-3.238;2023-09-08T06:17:48;101100.99;;;16.16;79.21
79690;BME280;69156;55.932;-3.238;2023-09-08T06:20:14;101096.85;;;16.38;78.89
79690;BME280;69156;55.932;-3.238;2023-09-08T06:22:39;101094.69;;;16.29;78.72
79690;BME280;69156;55.932;-3.238;2023-09-08T06:25:05;101091.13;;;16.30;78.65
79690;BME280;69156;55.932;-3.238;2023-09-08T06:27:30;101090.84;;;16.13;78.87
79690;BME280;69156;55.932;-3.238;2023-09-08T06:29:56;101087.88;;;16.35;78.64
79690;BME280;69156;55.932;-3.238;2023-09-08T06:32:21;101095.99;;;16.41;78.33
79690;BME280;69156;55.932;-3.238;2023-09-08T06:34:47;101099.79;;;16.28;78.27
79690;BME280;69156;55.932;-3.238;2023-09-08T06:37:12;101099.51;;;16.42;78.27
79690;BME280;69156;55.932;-3.238;2023-09-08T06:39:38;101097.64;;;16.28;78.02
79690;BME280;69156;55.932;-3.238;2023-09-08T06:42:04;101095.63;;;16.31;77.82
79690;BME280;69156;55.932;-3.238;2023-09-08T06:44:29;101098.82;;;16.50;77.54
79690;BME280;69156;55.932;-3.238;2023-09-08T06:46:55;101103.84;;;16.40;77.37
79690;BME280;69156;55.932;-3.238;2023-09-08T06:49:20;101106.32;;;16.45;77.49
79690;BME280;69156;55.932;-3.238;2023-09-08T06:51:46;101105.17;;;16.44;77.44
79690;BME280;69156;55.932;-3.238;2023-09-08T06:54:12;101103.39;;;16.36;77.76
79690;BME280;69156;55.932;-3.238;2023-09-08T06:56:38;101104.16;;;16.39;78.11
79690;BME280;69156;55.932;-3.238;2023-09-08T06:59:04;101104.20;;;16.46;78.15
79690;BME280;69156;55.932;-3.238;2023-09-08T07:01:29;101103.26;;;16.53;77.96
79690;BME280;69156;55.932;-3.238;2023-09-08T07:03:55;101105.06;;;16.55;77.85
79690;BME280;69156;55.932;-3.238;2023-09-08T07:06:21;101101.66;;;16.62;77.68
79690;BME280;69156;55.932;-3.238;2023-09-08T07:08:46;101100.18;;;16.62;77.43
79690;BME280;69156;55.932;-3.238;2023-09-08T07:11:12;101093.80;;;16.74;77.14
79690;BME280;69156;55.932;-3.238;2023-09-08T07:13:38;101087.16;;;16.76;76.87
79690;BME280;69156;55.932;-3.238;2023-09-08T07:16:03;101083.71;;;17.04;76.47
79690;BME280;69156;55.932;-3.238;2023-09-08T07:18:28;101086.35;;;17.07;76.34
79690;BME280;69156;55.932;-3.238;2023-09-08T07:20:53;101088.08;;;17.06;75.90
79690;BME280;69156;55.932;-3.238;2023-09-08T07:23:19;101086.56;;;17.27;75.74
79690;BME280;69156;55.932;-3.238;2023-09-08T07:25:46;101086.18;;;17.16;75.59
79690;BME280;69156;55.932;-3.238;2023-09-08T07:28:09;101087.94;;;17.34;75.57
79690;BME280;69156;55.932;-3.238;2023-09-08T07:30:34;101088.89;;;17.37;75.50
79690;BME280;69156;55.932;-3.238;2023-09-08T07:33:00;101087.84;;;17.58;75.31
79690;BME280;69156;55.932;-3.238;2023-09-08T07:35:25;101085.94;;;17.57;74.89
79690;BME280;69156;55.932;-3.238;2023-09-08T07:37:50;101082.00;;;17.91;74.14
79690;BME280;69156;55.932;-3.238;2023-09-08T07:40:16;101078.72;;;18.09;73.40
79690;BME280;69156;55.932;-3.238;2023-09-08T07:42:41;101077.84;;;18.12;73.19
79690;BME280;69156;55.932;-3.238;2023-09-08T07:45:08;101079.03;;;18.10;72.89
79690;BME280;69156;55.932;-3.238;2023-09-08T07:47:32;101080.15;;;18.17;72.72
79690;BME280;69156;55.932;-3.238;2023-09-08T07:50:17;101081.77;;;18.12;72.45
79690;BME280;69156;55.932;-3.238;2023-09-08T07:52:24;101081.02;;;18.23;72.22
79690;BME280;69156;55.932;-3.238;2023-09-08T07:54:49;101084.20;;;18.03;72.21
79690;BME280;69156;55.932;-3.238;2023-09-08T07:57:15;101086.38;;;18.26;71.99
79690;BME280;69156;55.932;-3.238;2023-09-08T07:59:41;101085.85;;;18.03;72.15
79690;BME280;69156;55.932;-3.238;2023-09-08T08:02:07;101084.51;;;18.12;72.09
79690;BME280;69156;55.932;-3.238;2023-09-08T08:04:32;101080.26;;;18.29;71.90
79690;BME280;69156;55.932;-3.238;2023-09-08T08:06:57;101079.75;;;18.29;71.60
79690;BME280;69156;55.932;-3.238;2023-09-08T08:09:23;101080.89;;;18.30;71.61
79690;BME280;69156;55.932;-3.238;2023-09-08T08:11:49;101079.70;;;18.40;71.46
79690;BME280;69156;55.932;-3.238;2023-09-08T08:14:15;101079.36;;;18.45;71.13
79690;BME280;69156;55.932;-3.238;2023-09-08T08:16:40;101074.98;;;18.68;70.89
79690;BME280;69156;55.932;-3.238;2023-09-08T08:19:06;101074.62;;;18.54;70.85
79690;BME280;69156;55.932;-3.238;2023-09-08T08:21:31;101079.12;;;18.39;70.87
79690;BME280;69156;55.932;-3.238;2023-09-08T08:23:57;101089.70;;;18.52;70.69
79690;BME280;69156;55.932;-3.238;2023-09-08T08:26:22;101100.23;;;18.75;70.53
79690;BME280;69156;55.932;-3.238;2023-09-08T08:28:48;101101.70;;;18.80;70.09
79690;BME280;69156;55.932;-3.238;2023-09-08T08:31:13;101102.02;;;18.74;70.40
79690;BME280;69156;55.932;-3.238;2023-09-08T08:33:38;101105.04;;;18.66;70.63
79690;BME280;69156;55.932;-3.238;2023-09-08T08:36:03;101106.21;;;18.84;70.60
79690;BME280;69156;55.932;-3.238;2023-09-08T08:38:28;101105.34;;;19.03;70.37
79690;BME280;69156;55.932;-3.238;2023-09-08T08:40:53;101104.99;;;19.17;69.96
79690;BME280;69156;55.932;-3.238;2023-09-08T08:43:20;101100.95;;;19.31;69.55
79690;BME280;69156;55.932;-3.238;2023-09-08T08:45:46;101101.38;;;19.14;69.33
79690;BME280;69156;55.932;-3.238;2023-09-08T08:48:11;101102.09;;;19.19;69.38
79690;BME280;69156;55.932;-3.238;2023-09-08T08:50:36;101105.16;;;19.19;69.35
79690;BME280;69156;55.932;-3.238;2023-09-08T08:53:01;101104.76;;;19.30;69.37
79690;BME280;69156;55.932;-3.238;2023-09-08T08:55:29;101098.60;;;19.22;69.35
79690;BME280;69156;55.932;-3.238;2023-09-08T08:57:54;101095.62;;;19.39;69.39
79690;BME280;69156;55.932;-3.238;2023-09-08T09:00:19;101095.48;;;19.66;68.62
79690;BME280;69156;55.932;-3.238;2023-09-08T09:02:45;101097.85;;;19.42;68.64
79690;BME280;69156;55.932;-3.238;2023-09-08T09:05:12;101098.98;;;19.56;68.43
79690;BME280;69156;55.932;-3.238;2023-09-08T09:07:36;101095.42;;;19.71;68.24
79690;BME280;69156;55.932;-3.238;2023-09-08T09:10:01;101093.97;;;19.90;67.59
79690;BME280;69156;55.932;-3.238;2023-09-08T09:12:26;101097.99;;;19.93;67.36
79690;BME280;69156;55.932;-3.238;2023-09-08T09:14:53;101099.36;;;19.88;67.30
79690;BME280;69156;55.932;-3.238;2023-09-08T09:17:18;101095.64;;;19.83;67.47
79690;BME280;69156;55.932;-3.238;2023-09-08T09:19:43;101091.13;;;20.08;66.66
79690;BME280;69156;55.932;-3.238;2023-09-08T09:22:09;101086.17;;;20.18;66.35
79690;BME280;69156;55.932;-3.238;2023-09-08T09:24:37;101082.29;;;20.38;65.74
79690;BME280;69156;55.932;-3.238;2023-09-08T09:27:01;101081.36;;;20.51;65.28
79690;BME280;69156;55.932;-3.238;2023-09-08T09:29:27;101083.81;;;20.60;65.16
79690;BME280;69156;55.932;-3.238;2023-09-08T09:31:53;101081.93;;;20.48;65.00
79690;BME280;69156;55.932;-3.238;2023-09-08T09:34:17;101077.92;;;20.84;64.46
79690;BME280;69156;55.932;-3.238;2023-09-08T09:36:43;101077.86;;;20.94;64.13
79690;BME280;69156;55.932;-3.238;2023-09-08T09:39:08;101074.25;;;21.04;63.96
79690;BME280;69156;55.932;-3.238;2023-09-08T09:41:34;101072.38;;;21.00;64.10
79690;BME280;69156;55.932;-3.238;2023-09-08T09:43:59;101071.44;;;21.17;63.96
79690;BME280;69156;55.932;-3.238;2023-09-08T09:46:28;101073.68;;;21.30;63.50
79690;BME280;69156;55.932;-3.238;2023-09-08T09:48:51;101073.63;;;21.43;62.93
79690;BME280;69156;55.932;-3.238;2023-09-08T09:51:16;101070.52;;;21.69;62.37
79690;BME280;69156;55.932;-3.238;2023-09-08T09:53:41;101065.32;;;21.74;61.11
79690;BME280;69156;55.932;-3.238;2023-09-08T09:56:07;101067.68;;;21.82;60.45
79690;BME280;69156;55.932;-3.238;2023-09-08T09:58:32;101069.83;;;22.02;59.55
79690;BME280;69156;55.932;-3.238;2023-09-08T10:00:57;101071.98;;;22.09;58.79
79690;BME280;69156;55.932;-3.238;2023-09-08T10:03:23;101071.33;;;22.06;58.66
79690;BME280;69156;55.932;-3.238;2023-09-08T10:05:48;101067.13;;;22.34;58.05
79690;BME280;69156;55.932;-3.238;2023-09-08T10:08:13;101064.57;;;22.29;58.10
79690;BME280;69156;55.932;-3.238;2023-09-08T10:10:39;101066.19;;;22.66;57.06
79690;BME280;69156;55.932;-3.238;2023-09-08T10:13:06;101063.35;;;22.69;57.01
79690;BME280;69156;55.932;-3.238;2023-09-08T10:15:31;101061.41;;;22.79;57.00
79690;BME280;69156;55.932;-3.238;2023-09-08T10:17:56;101057.65;;;22.70;56.90
79690;BME280;69156;55.932;-3.238;2023-09-08T10:20:23;101050.75;;;22.84;56.80
79690;BME280;69156;55.932;-3.238;2023-09-08T10:22:49;101047.50;;;22.83;56.53
79690;BME280;69156;55.932;-3.238;2023-09-08T10:25:12;101047.04;;;22.96;55.86
79690;BME280;69156;55.932;-3.238;2023-09-08T10:27:37;101044.18;;;23.12;55.70
79690;BME280;69156;55.932;-3.238;2023-09-08T10:30:04;101042.95;;;22.95;55.53
79690;BME280;69156;55.932;-3.238;2023-09-08T10:32:28;101036.43;;;23.21;55.44
79690;BME280;69156;55.932;-3.238;2023-09-08T10:34:53;101029.79;;;23.32;54.54
79690;BME280;69156;55.932;-3.238;2023-09-08T10:37:21;101029.80;;;23.33;54.56
79690;BME280;69156;55.932;-3.238;2023-09-08T10:39:45;101033.46;;;23.24;54.61
79690;BME280;69156;55.932;-3.238;2023-09-08T10:42:26;101027.26;;;23.31;54.62
79690;BME280;69156;55.932;-3.238;2023-09-08T10:44:38;101026.80;;;23.44;54.69
79690;BME280;69156;55.932;-3.238;2023-09-08T10:47:02;101020.93;;;23.53;54.69
79690;BME280;69156;55.932;-3.238;2023-09-08T10:49:27;101019.28;;;23.53;54.58
79690;BME280;69156;55.932;-3.238;2023-09-08T10:51:52;101014.87;;;23.74;54.02
79690;BME280;69156;55.932;-3.238;2023-09-08T10:54:41;101016.81;;;23.76;53.42
79690;BME280;69156;55.932;-3.238;2023-09-08T10:56:55;101018.94;;;23.92;53.28
79690;BME280;69156;55.932;-3.238;2023-09-08T10:59:10;101015.97;;;24.06;53.11
79690;BME280;69156;55.932;-3.238;2023-09-08T11:01:35;101009.04;;;24.06;52.83
79690;BME280;69156;55.932;-3.238;2023-09-08T11:04:04;101003.78;;;23.98;52.99
79690;BME280;69156;55.932;-3.238;2023-09-08T11:06:26;101005.44;;;23.96;53.07
79690;BME280;69156;55.932;-3.238;2023-09-08T11:08:51;101005.49;;;23.90;52.67
79690;BME280;69156;55.932;-3.238;2023-09-08T11:11:16;101008.33;;;23.93;53.01
79690;BME280;69156;55.932;-3.238;2023-09-08T11:13:42;101008.68;;;24.02;53.00
79690;BME280;69156;55.932;-3.238;2023-09-08T11:16:07;101008.14;;;24.32;52.53
79690;BME280;69156;55.932;-3.238;2023-09-08T11:18:34;101003.80;;;24.51;52.01
79690;BME280;69156;55.932;-3.238;2023-09-08T11:20:59;101006.06;;;24.41;51.81
79690;BME280;69156;55.932;-3.238;2023-09-08T11:23:25;101001.41;;;24.50;50.80
79690;BME280;69156;55.932;-3.238;2023-09-08T11:25:51;101003.14;;;24.57;50.77
79690;BME280;69156;55.932;-3.238;2023-09-08T11:28:16;101002.28;;;24.51;51.45
79690;BME280;69156;55.932;-3.238;2023-09-08T11:30:40;101001.54;;;24.47;51.19
79690;BME280;69156;55.932;-3.238;2023-09-08T11:33:13;100999.79;;;24.71;50.60
79690;BME280;69156;55.932;-3.238;2023-09-08T11:35:32;100999.22;;;24.51;49.84
79690;BME280;69156;55.932;-3.238;2023-09-08T11:37:59;100996.28;;;24.72;49.93
79690;BME280;69156;55.932;-3.238;2023-09-08T11:40:24;100996.01;;;24.64;49.32
79690;BME280;69156;55.932;-3.238;2023-09-08T11:42:49;100996.27;;;24.71;49.31
79690;BME280;69156;55.932;-3.238;2023-09-08T11:45:16;100993.11;;;24.68;49.35
79690;BME280;69156;55.932;-3.238;2023-09-08T11:47:40;100994.53;;;24.78;49.11
79690;BME280;69156;55.932;-3.238;2023-09-08T11:50:06;100990.11;;;25.06;47.89
79690;BME280;69156;55.932;-3.238;2023-09-08T11:52:31;100988.97;;;24.86;48.48
79690;BME280;69156;55.932;-3.238;2023-09-08T11:54:56;100987.10;;;25.17;47.83
79690;BME280;69156;55.932;-3.238;2023-09-08T11:57:21;100987.02;;;25.11;47.76
79690;BME280;69156;55.932;-3.238;2023-09-08T11:59:47;100987.48;;;25.12;48.02
79690;BME280;69156;55.932;-3.238;2023-09-08T12:02:12;100984.36;;;25.26;47.05
79690;BME280;69156;55.932;-3.238;2023-09-08T12:04:37;100984.07;;;25.32;47.36
79690;BME280;69156;55.932;-3.238;2023-09-08T12:07:03;100983.59;;;25.39;46.23
79690;BME280;69156;55.932;-3.238;2023-09-08T12:09:28;100981.98;;;25.48;46.19
79690;BME280;69156;55.932;-3.238;2023-09-08T12:11:53;100982.41;;;25.59;45.78
79690;BME280;69156;55.932;-3.238;2023-09-08T12:14:19;100982.43;;;25.33;46.05
79690;BME280;69156;55.932;-3.238;2023-09-08T12:16:44;100982.46;;;25.54;45.06
79690;BME280;69156;55.932;-3.238;2023-09-08T12:19:29;100978.19;;;25.42;45.09
79690;BME280;69156;55.932;-3.238;2023-09-08T12:21:54;100977.51;;;25.22;45.67
79690;BME280;69156;55.932;-3.238;2023-09-08T12:24:02;100976.86;;;25.46;45.78
79690;BME280;69156;55.932;-3.238;2023-09-08T12:26:28;100975.32;;;25.18;45.30
79690;BME280;69156;55.932;-3.238;2023-09-08T12:28:55;100970.44;;;25.57;44.34
79690;BME280;69156;55.932;-3.238;2023-09-08T12:31:21;100967.22;;;25.83;43.42